Time;durP1;ratioP1;P1;durP2;ratioP2;P2;SDS_P1;SDS_P2;PMS_P1;PMS_P2;Temp;Humidity;BMP_temperature;BMP_pressure;BME280_temperature;BME280_humidity;BME280_pressure;Samples;Min_cycle;Max_cycle;Signal;HPM_P1;HPM_P2
2021/11/27 00:00:57;;;;;;;15.45;6.05;;;;;;;;;;5013903;28;20026;-86
2021/11/27 00:03:24;;;;;;;11.68;5.97;;;;;;;;;;5014370;28;20026;-91
2021/11/27 00:05:51;;;;;;;15.13;6.22;;;;;;;;;;5013628;28;20026;-91
2021/11/27 00:08:19;;;;;;;14.38;6.60;;;;;;;;;;5014573;28;20064;-90
2021/11/27 00:10:46;;;;;;;15.55;6.00;;;;;;;;;;5013461;28;20029;-89
2021/11/27 00:13:13;;;;;;;14.05;5.82;;;;;;;;;;5012507;28;20037;-88
2021/11/27 00:15:40;;;;;;;11.20;4.82;;;;;;;;;;5014510;28;20025;-89
2021/11/27 00:18:07;;;;;;;10.38;5.25;;;;;;;;;;5013408;28;20479;-89
2021/11/27 00:20:59;;;;;;;16.45;5.93;;;;;;;;;;5012737;28;20482;-89
2021/11/27 00:23:26;;;;;;;15.60;6.30;;;;;;;;;;4993985;28;20030;-90
2021/11/27 00:25:53;;;;;;;12.63;5.95;;;;;;;;;;4997167;28;20139;-89
2021/11/27 00:28:20;;;;;;;10.98;5.00;;;;;;;;;;4995199;28;20034;-89
2021/11/27 00:30:46;;;;;;;11.05;5.03;;;;;;;;;;4994201;28;20026;-90
2021/11/27 00:33:13;;;;;;;15.80;5.43;;;;;;;;;;4995067;28;20052;-90
2021/11/27 00:35:39;;;;;;;10.95;4.70;;;;;;;;;;4994642;28;20023;-89
2021/11/27 00:38:06;;;;;;;10.45;4.78;;;;;;;;;;4995929;28;20482;-89
2021/11/27 00:40:34;;;;;;;10.43;5.47;;;;;;;;;;5000778;28;20019;-88
2021/11/27 00:43:00;;;;;;;13.23;5.00;;;;;;;;;;5007429;28;20018;-88
2021/11/27 00:45:27;;;;;;;12.75;5.15;;;;;;;;;;5002290;28;20347;-88
2021/11/27 00:47:54;;;;;;;12.02;4.90;;;;;;;;;;4999363;28;20121;-89
2021/11/27 00:50:23;;;;;;;12.60;4.80;;;;;;;;;;4998496;28;20495;-90
2021/11/27 00:52:50;;;;;;;12.27;4.78;;;;;;;;;;4997760;28;20480;-91
2021/11/27 00:55:16;;;;;;;12.93;5.25;;;;;;;;;;5000137;28;20034;-92
2021/11/27 00:57:44;;;;;;;10.23;4.97;;;;;;;;;;5000124;28;20460;-92
2021/11/27 01:00:13;;;;;;;9.73;4.65;;;;;;;;;;4999380;28;20031;-86
2021/11/27 01:02:40;;;;;;;10.68;4.03;;;;;;;;;;4998963;28;20471;-90
2021/11/27 01:05:07;;;;;;;10.10;4.43;;;;;;;;;;4999005;28;20030;-90
2021/11/27 01:07:33;;;;;;;11.85;4.65;;;;;;;;;;4999478;28;20045;-92
2021/11/27 01:10:00;;;;;;;9.82;4.07;;;;;;;;;;4997938;28;20053;-90
2021/11/27 01:12:26;;;;;;;9.20;3.72;;;;;;;;;;4999191;28;20061;-88
2021/11/27 01:14:52;;;;;;;7.95;3.88;;;;;;;;;;4997574;28;20068;-87
2021/11/27 01:17:19;;;;;;;9.07;3.95;;;;;;;;;;4997472;28;20083;-88
2021/11/27 01:19:45;;;;;;;11.20;4.03;;;;;;;;;;4999208;28;20042;-89
2021/11/27 01:22:16;;;;;;;8.55;3.83;;;;;;;;;;4999459;28;20030;-86
2021/11/27 01:24:43;;;;;;;11.95;5.45;;;;;;;;;;4999004;28;20058;-86
2021/11/27 01:27:10;;;;;;;12.93;4.68;;;;;;;;;;4998047;28;20121;-88
2021/11/27 01:29:38;;;;;;;12.63;4.53;;;;;;;;;;4998219;28;20030;-87
2021/11/27 01:32:05;;;;;;;9.25;4.35;;;;;;;;;;4998014;28;20053;-90
2021/11/27 01:34:33;;;;;;;8.40;4.07;;;;;;;;;;5002821;28;20088;-89
2021/11/27 01:36:59;;;;;;;11.43;4.68;;;;;;;;;;5003915;28;20026;-88
2021/11/27 01:39:25;;;;;;;9.98;4.32;;;;;;;;;;5000205;28;20032;-89
2021/11/27 01:41:51;;;;;;;15.68;5.05;;;;;;;;;;5000569;28;20027;-91
2021/11/27 01:44:17;;;;;;;9.35;4.60;;;;;;;;;;5002669;28;20045;-88
2021/11/27 01:46:44;;;;;;;8.57;3.97;;;;;;;;;;4998319;28;20502;-85
2021/11/27 01:49:10;;;;;;;12.07;4.18;;;;;;;;;;4996837;28;20070;-88
2021/11/27 01:51:37;;;;;;;9.90;4.55;;;;;;;;;;4997004;28;20026;-90
2021/11/27 01:54:05;;;;;;;9.00;3.70;;;;;;;;;;4997219;28;20060;-85
2021/11/27 01:56:35;;;;;;;9.38;3.80;;;;;;;;;;4996696;28;20104;-89
2021/11/27 01:59:01;;;;;;;12.65;4.65;;;;;;;;;;4997862;28;20022;-91
2021/11/27 02:01:29;;;;;;;9.43;4.03;;;;;;;;;;4997908;28;20402;-91
2021/11/27 02:03:56;;;;;;;9.18;4.25;;;;;;;;;;4997472;28;20034;-90
2021/11/27 02:06:24;;;;;;;12.07;4.15;;;;;;;;;;4998542;28;20034;-86
2021/11/27 02:08:51;;;;;;;9.55;4.38;;;;;;;;;;4997023;28;20034;-90
2021/11/27 02:11:20;;;;;;;11.77;5.18;;;;;;;;;;4997142;28;20030;-89
2021/11/27 02:13:46;;;;;;;10.93;4.78;;;;;;;;;;4997031;28;20033;-89
2021/11/27 02:16:12;;;;;;;10.13;4.75;;;;;;;;;;4996060;28;20080;-85
2021/11/27 02:18:39;;;;;;;10.32;4.35;;;;;;;;;;4996624;28;20030;-90
2021/11/27 02:21:07;;;;;;;7.57;4.25;;;;;;;;;;4996220;28;20031;-89
2021/11/27 02:23:34;;;;;;;12.25;4.75;;;;;;;;;;4995411;28;20026;-85
2021/11/27 02:26:01;;;;;;;8.10;3.72;;;;;;;;;;5011030;28;20030;-91
2021/11/27 02:28:28;;;;;;;8.88;5.07;;;;;;;;;;5016535;28;20434;-89
2021/11/27 02:30:54;;;;;;;12.82;5.00;;;;;;;;;;5017149;28;20030;-89
2021/11/27 02:33:20;;;;;;;11.57;4.65;;;;;;;;;;5016380;28;20076;-88
2021/11/27 02:35:47;;;;;;;10.45;4.43;;;;;;;;;;5017851;28;20033;-89
2021/11/27 02:38:14;;;;;;;14.68;5.38;;;;;;;;;;5017663;28;20083;-89
2021/11/27 02:40:41;;;;;;;15.15;5.40;;;;;;;;;;5016687;28;20025;-86
2021/11/27 02:43:08;;;;;;;8.77;4.47;;;;;;;;;;5017456;28;20526;-86
2021/11/27 02:45:34;;;;;;;13.85;4.30;;;;;;;;;;5015738;28;20493;-87
2021/11/27 02:48:00;;;;;;;13.25;5.78;;;;;;;;;;5016445;28;20110;-85
2021/11/27 02:50:26;;;;;;;9.30;4.40;;;;;;;;;;5019907;28;20033;-88
2021/11/27 02:52:53;;;;;;;9.60;4.88;;;;;;;;;;5032602;28;20040;-89
2021/11/27 02:55:19;;;;;;;12.18;5.03;;;;;;;;;;5032472;28;20446;-88
2021/11/27 02:57:45;;;;;;;13.48;5.68;;;;;;;;;;5033522;28;20049;-85
2021/11/27 03:00:13;;;;;;;15.70;5.00;;;;;;;;;;5033025;28;20045;-89
2021/11/27 03:02:40;;;;;;;10.23;4.22;;;;;;;;;;5015130;28;20026;-88
2021/11/27 03:05:10;;;;;;;12.30;5.82;;;;;;;;;;5033843;28;20022;-86
2021/11/27 03:07:38;;;;;;;15.07;5.60;;;;;;;;;;5022196;28;20053;-88
2021/11/27 03:10:05;;;;;;;14.57;5.57;;;;;;;;;;5018961;28;20018;-88
2021/11/27 03:12:31;;;;;;;16.73;6.57;;;;;;;;;;5017498;28;20487;-89
2021/11/27 03:14:58;;;;;;;16.73;6.93;;;;;;;;;;5018715;28;20379;-88
2021/11/27 03:17:24;;;;;;;14.02;5.75;;;;;;;;;;5023558;28;20010;-88
2021/11/27 03:19:51;;;;;;;15.02;7.50;;;;;;;;;;5037480;28;20018;-85
2021/11/27 03:22:19;;;;;;;15.43;6.07;;;;;;;;;;5020837;28;20088;-88
2021/11/27 03:24:46;;;;;;;12.55;5.13;;;;;;;;;;5011054;28;20046;-89
2021/11/27 03:27:14;;;;;;;11.82;5.28;;;;;;;;;;4995533;28;20462;-89
2021/11/27 03:29:41;;;;;;;13.40;5.40;;;;;;;;;;4995046;28;20030;-88
2021/11/27 03:32:09;;;;;;;14.85;6.40;;;;;;;;;;4994625;28;20023;-89
2021/11/27 03:34:35;;;;;;;20.48;8.52;;;;;;;;;;4994543;28;20395;-86
2021/11/27 03:37:01;;;;;;;19.00;7.60;;;;;;;;;;4993940;28;20235;-88
2021/11/27 03:39:28;;;;;;;20.50;6.65;;;;;;;;;;4994446;28;20030;-89
2021/11/27 03:41:54;;;;;;;17.17;6.85;;;;;;;;;;4995502;28;20533;-89
2021/11/27 03:44:21;;;;;;;18.15;7.18;;;;;;;;;;4994520;28;20027;-87
2021/11/27 03:46:47;;;;;;;17.48;6.35;;;;;;;;;;4994287;28;20471;-89
2021/11/27 03:49:14;;;;;;;19.33;6.72;;;;;;;;;;4994378;28;20062;-89
2021/11/27 03:51:40;;;;;;;17.65;6.82;;;;;;;;;;4994467;28;20037;-88
2021/11/27 03:54:07;;;;;;;14.52;6.05;;;;;;;;;;4994125;28;20475;-88
2021/11/27 03:56:33;;;;;;;16.20;6.60;;;;;;;;;;4995255;28;20429;-88
2021/11/27 03:59:01;;;;;;;17.10;7.22;;;;;;;;;;4994560;28;20018;-88
2021/11/27 04:01:28;;;;;;;14.60;6.78;;;;;;;;;;4994269;28;20030;-86
2021/11/27 04:03:56;;;;;;;13.80;6.03;;;;;;;;;;4994949;28;20446;-88
2021/11/27 04:06:23;;;;;;;15.73;6.38;;;;;;;;;;4995055;28;20084;-88
2021/11/27 04:08:49;;;;;;;13.18;5.70;;;;;;;;;;4995279;28;20544;-86
2021/11/27 04:11:15;;;;;;;15.82;6.38;;;;;;;;;;4992850;28;20028;-90
2021/11/27 04:13:42;;;;;;;13.27;5.60;;;;;;;;;;4994743;28;20081;-89
2021/11/27 04:16:08;;;;;;;12.73;5.93;;;;;;;;;;4994175;28;20098;-90
2021/11/27 04:18:35;;;;;;;17.90;6.75;;;;;;;;;;4994204;28;20121;-90
2021/11/27 04:21:01;;;;;;;16.30;6.20;;;;;;;;;;4995023;28;20050;-89
2021/11/27 04:23:27;;;;;;;17.08;5.95;;;;;;;;;;4995373;28;20081;-89
2021/11/27 04:25:54;;;;;;;12.38;5.60;;;;;;;;;;4996092;28;20105;-86
2021/11/27 04:28:20;;;;;;;11.43;4.88;;;;;;;;;;4993756;28;20512;-88
2021/11/27 04:30:47;;;;;;;10.23;5.32;;;;;;;;;;4994955;28;20030;-87
2021/11/27 04:33:13;;;;;;;10.95;4.85;;;;;;;;;;4995448;28;20022;-84
2021/11/27 04:35:40;;;;;;;11.10;5.28;;;;;;;;;;4993968;28;20026;-86
2021/11/27 04:38:07;;;;;;;8.80;4.57;;;;;;;;;;4993322;28;20026;-89
2021/11/27 04:40:35;;;;;;;14.52;5.70;;;;;;;;;;4993179;28;20037;-88
2021/11/27 04:43:02;;;;;;;14.52;6.25;;;;;;;;;;4993153;28;20029;-87
2021/11/27 04:45:29;;;;;;;14.52;6.00;;;;;;;;;;4994490;28;20031;-85
2021/11/27 04:47:56;;;;;;;15.60;5.65;;;;;;;;;;4993521;28;20053;-87
2021/11/27 04:50:22;;;;;;;15.60;6.15;;;;;;;;;;4993462;28;20034;-87
2021/11/27 04:52:49;;;;;;;16.58;6.85;;;;;;;;;;4992824;28;20121;-87
2021/11/27 04:55:16;;;;;;;18.00;7.07;;;;;;;;;;4993472;28;20026;-90
2021/11/27 04:57:42;;;;;;;18.13;6.82;;;;;;;;;;4993202;28;20041;-90
2021/11/27 05:00:11;;;;;;;19.50;8.23;;;;;;;;;;4994352;28;20023;-89
2021/11/27 05:02:37;;;;;;;19.77;6.82;;;;;;;;;;4993373;28;20030;-90
2021/11/27 05:05:04;;;;;;;20.98;8.18;;;;;;;;;;4993569;28;20054;-89
2021/11/27 05:07:30;;;;;;;17.15;7.15;;;;;;;;;;4994427;28;20042;-90
2021/11/27 05:09:58;;;;;;;21.85;7.80;;;;;;;;;;4992825;28;20398;-85
2021/11/27 05:12:24;;;;;;;16.73;6.68;;;;;;;;;;4994003;28;20033;-84
2021/11/27 05:14:50;;;;;;;20.92;8.20;;;;;;;;;;4993193;28;20023;-85
2021/11/27 05:17:16;;;;;;;17.95;6.72;;;;;;;;;;4992966;28;20113;-85
2021/11/27 05:19:42;;;;;;;13.68;5.45;;;;;;;;;;4992743;28;20112;-85
2021/11/27 05:22:08;;;;;;;15.68;7.05;;;;;;;;;;4992565;28;20033;-86
2021/11/27 05:24:35;;;;;;;13.93;6.10;;;;;;;;;;4996016;28;20046;-83
2021/11/27 05:27:01;;;;;;;20.17;6.70;;;;;;;;;;4996918;28;20027;-85
2021/11/27 05:29:27;;;;;;;16.92;5.97;;;;;;;;;;4996610;28;20100;-84
2021/11/27 05:32:00;;;;;;;16.88;5.97;;;;;;;;;;5011630;28;20021;-87
2021/11/27 05:34:33;;;;;;;13.23;5.03;;;;;;;;;;5014295;28;20030;-86
2021/11/27 05:37:00;;;;;;;22.20;7.10;;;;;;;;;;5002470;28;20019;-87
2021/11/27 05:39:27;;;;;;;20.35;8.60;;;;;;;;;;4997837;28;20043;-88
2021/11/27 05:41:53;;;;;;;18.00;7.35;;;;;;;;;;4996701;28;20026;-86
2021/11/27 05:44:19;;;;;;;26.25;8.77;;;;;;;;;;4997597;28;20037;-85
2021/11/27 05:46:45;;;;;;;22.65;7.60;;;;;;;;;;4996215;28;20042;-86
2021/11/27 05:49:11;;;;;;;28.08;8.10;;;;;;;;;;4998109;28;20031;-88
2021/11/27 05:51:38;;;;;;;14.80;6.70;;;;;;;;;;5002482;28;20034;-87
2021/11/27 05:54:04;;;;;;;23.85;8.43;;;;;;;;;;5002621;28;20026;-86
2021/11/27 05:56:30;;;;;;;19.90;7.55;;;;;;;;;;4997827;28;20491;-83
2021/11/27 05:58:56;;;;;;;16.45;7.13;;;;;;;;;;4996640;28;20026;-83
2021/11/27 06:01:23;;;;;;;17.10;7.03;;;;;;;;;;4996367;28;20034;-86
2021/11/27 06:03:49;;;;;;;17.92;7.50;;;;;;;;;;4996131;28;20513;-87
2021/11/27 06:06:15;;;;;;;17.48;7.45;;;;;;;;;;4996076;28;20084;-85
2021/11/27 06:08:41;;;;;;;16.25;6.35;;;;;;;;;;4996330;28;20483;-86
2021/11/27 06:11:07;;;;;;;18.50;7.40;;;;;;;;;;4995723;28;20022;-84
2021/11/27 06:13:34;;;;;;;21.23;7.53;;;;;;;;;;4995551;28;20037;-85
2021/11/27 06:16:06;;;;;;;19.27;6.43;;;;;;;;;;4995094;28;20031;-83
2021/11/27 06:18:32;;;;;;;17.80;7.13;;;;;;;;;;4995423;28;20125;-85
2021/11/27 06:21:01;;;;;;;16.10;6.22;;;;;;;;;;4996880;28;20384;-85
2021/11/27 06:23:27;;;;;;;15.35;6.32;;;;;;;;;;4997273;28;20483;-89
2021/11/27 06:25:54;;;;;;;20.27;8.45;;;;;;;;;;4996952;28;20522;-87
2021/11/27 06:28:21;;;;;;;17.02;6.95;;;;;;;;;;4997109;28;20040;-92
2021/11/27 06:30:47;;;;;;;21.65;7.53;;;;;;;;;;4998510;28;20023;-85
2021/11/27 06:33:14;;;;;;;20.50;7.95;;;;;;;;;;4998271;28;20113;-92
2021/11/27 06:35:40;;;;;;;21.73;7.78;;;;;;;;;;4998008;28;20042;-93
2021/11/27 06:38:07;;;;;;;16.02;7.10;;;;;;;;;;4999431;28;20030;-93
2021/11/27 06:40:33;;;;;;;16.17;7.05;;;;;;;;;;4997311;28;20161;-93
2021/11/27 06:43:01;;;;;;;14.18;6.78;;;;;;;;;;4999259;28;20067;-92
2021/11/27 06:45:28;;;;;;;18.27;7.53;;;;;;;;;;4997247;28;20113;-89
2021/11/27 06:47:55;;;;;;;16.85;8.27;;;;;;;;;;4998401;28;20452;-85
2021/11/27 06:50:21;;;;;;;20.38;8.98;;;;;;;;;;4995845;28;20061;-87
2021/11/27 06:52:47;;;;;;;22.05;8.55;;;;;;;;;;4997636;28;20447;-91
2021/11/27 06:55:14;;;;;;;24.17;9.45;;;;;;;;;;4999343;28;20085;-87
2021/11/27 06:57:40;;;;;;;20.77;9.02;;;;;;;;;;4998207;28;20081;-87
2021/11/27 07:00:07;;;;;;;35.10;14.55;;;;;;;;;;4996641;28;20027;-91
2021/11/27 07:02:33;;;;;;;82.88;26.17;;;;;;;;;;4997114;28;20096;-91
2021/11/27 07:05:00;;;;;;;54.42;17.13;;;;;;;;;;4997172;28;20027;-88
2021/11/27 07:07:26;;;;;;;30.40;11.30;;;;;;;;;;4999724;28;20066;-90
2021/11/27 07:09:53;;;;;;;40.58;14.00;;;;;;;;;;4996986;28;20054;-86
2021/11/27 07:12:19;;;;;;;52.83;18.60;;;;;;;;;;4998238;28;20027;-93
2021/11/27 07:14:46;;;;;;;74.97;23.77;;;;;;;;;;4997012;28;20164;-87
2021/11/27 07:17:12;;;;;;;90.18;28.50;;;;;;;;;;4998651;28;20100;-88
2021/11/27 07:19:38;;;;;;;79.25;27.10;;;;;;;;;;4996819;28;20478;-92
2021/11/27 07:22:05;;;;;;;70.10;26.30;;;;;;;;;;4997305;28;20034;-85
2021/11/27 07:24:31;;;;;;;76.28;27.13;;;;;;;;;;5000967;28;20517;-84
2021/11/27 07:26:59;;;;;;;67.07;25.33;;;;;;;;;;5015485;28;20091;-85
2021/11/27 07:29:32;;;;;;;49.95;16.58;;;;;;;;;;5015497;28;20026;-88
2021/11/27 07:31:58;;;;;;;45.63;16.30;;;;;;;;;;5015541;28;20505;-89
2021/11/27 07:34:24;;;;;;;31.40;11.93;;;;;;;;;;5016148;28;20037;-89
2021/11/27 07:36:50;;;;;;;27.08;12.02;;;;;;;;;;5016185;28;20029;-85
2021/11/27 07:39:16;;;;;;;34.75;13.02;;;;;;;;;;5017270;28;20022;-86
2021/11/27 07:41:42;;;;;;;32.50;12.45;;;;;;;;;;5016225;28;20084;-89
2021/11/27 07:44:09;;;;;;;32.10;11.43;;;;;;;;;;5015799;28;20028;-86
2021/11/27 07:46:35;;;;;;;28.50;11.23;;;;;;;;;;5016470;28;20022;-92
2021/11/27 07:49:01;;;;;;;26.42;11.15;;;;;;;;;;5019796;28;20034;-86
2021/11/27 07:51:30;;;;;;;28.00;11.68;;;;;;;;;;5037424;28;20053;-83
2021/11/27 07:53:56;;;;;;;25.67;11.57;;;;;;;;;;5031085;28;20029;-85
2021/11/27 07:56:23;;;;;;;26.13;11.82;;;;;;;;;;5021683;28;20041;-88
2021/11/27 07:58:49;;;;;;;21.20;9.88;;;;;;;;;;5015698;28;20033;-85
2021/11/27 08:01:15;;;;;;;24.88;9.55;;;;;;;;;;5017461;28;20044;-86
2021/11/27 08:03:41;;;;;;;21.38;9.65;;;;;;;;;;5015980;28;20036;-86
2021/11/27 08:06:08;;;;;;;30.80;10.93;;;;;;;;;;5015125;28;20099;-87
2021/11/27 08:08:35;;;;;;;25.88;9.30;;;;;;;;;;5015279;28;20030;-85
2021/11/27 08:11:01;;;;;;;19.00;8.90;;;;;;;;;;5015069;28;20120;-87
2021/11/27 08:13:27;;;;;;;28.33;10.88;;;;;;;;;;5015059;28;20107;-88
2021/11/27 08:15:55;;;;;;;33.30;11.27;;;;;;;;;;5014681;28;20103;-91
2021/11/27 08:18:21;;;;;;;27.35;13.23;;;;;;;;;;5016960;28;20029;-86
2021/11/27 08:20:50;;;;;;;33.13;14.95;;;;;;;;;;5023903;28;20025;-84
2021/11/27 08:23:20;;;;;;;25.05;10.20;;;;;;;;;;5015632;28;20036;-89
2021/11/27 08:25:46;;;;;;;23.20;10.38;;;;;;;;;;5015136;28;20065;-86
2021/11/27 08:28:13;;;;;;;18.67;7.28;;;;;;;;;;5014218;28;20053;-86
2021/11/27 08:30:39;;;;;;;19.10;8.20;;;;;;;;;;5014416;28;20032;-86
2021/11/27 08:33:05;;;;;;;17.83;7.18;;;;;;;;;;5014526;28;20113;-93
2021/11/27 08:35:32;;;;;;;13.40;6.47;;;;;;;;;;5016207;28;20022;-86
2021/11/27 08:37:58;;;;;;;12.00;6.78;;;;;;;;;;5014651;28;20030;-92
2021/11/27 08:40:25;;;;;;;12.20;5.55;;;;;;;;;;5015109;28;20022;-92
2021/11/27 08:42:51;;;;;;;10.00;5.25;;;;;;;;;;5016562;28;20096;-92
2021/11/27 08:45:18;;;;;;;12.38;5.55;;;;;;;;;;5015294;28;20027;-91
2021/11/27 08:47:44;;;;;;;11.50;6.43;;;;;;;;;;5014484;28;20044;-88
2021/11/27 08:50:12;;;;;;;13.73;7.20;;;;;;;;;;5014684;28;20538;-87
2021/11/27 08:52:38;;;;;;;13.02;6.63;;;;;;;;;;5014261;28;20098;-88
2021/11/27 08:55:05;;;;;;;13.15;6.82;;;;;;;;;;5014332;28;20052;-89
2021/11/27 08:57:31;;;;;;;12.75;6.38;;;;;;;;;;5013670;28;20057;-90
2021/11/27 08:59:57;;;;;;;13.98;6.95;;;;;;;;;;5019071;28;20026;-87
2021/11/27 09:02:23;;;;;;;16.48;7.13;;;;;;;;;;5018157;28;20057;-86
2021/11/27 09:04:50;;;;;;;10.90;6.07;;;;;;;;;;5017885;28;20029;-89
2021/11/27 09:07:16;;;;;;;16.90;7.22;;;;;;;;;;5018285;28;20175;-88
2021/11/27 09:09:45;;;;;;;17.95;8.43;;;;;;;;;;5019227;28;20431;-88
2021/11/27 09:12:12;;;;;;;22.48;8.13;;;;;;;;;;5018861;28;20390;-88
2021/11/27 09:14:38;;;;;;;15.80;8.23;;;;;;;;;;5018113;28;20029;-92
2021/11/27 09:17:04;;;;;;;15.07;7.32;;;;;;;;;;5018348;28;20536;-90
2021/11/27 09:19:30;;;;;;;15.15;7.22;;;;;;;;;;5018194;28;20124;-89
2021/11/27 09:21:57;;;;;;;17.45;7.32;;;;;;;;;;5019232;28;20170;-92
2021/11/27 09:24:24;;;;;;;17.52;8.10;;;;;;;;;;5017546;28;20002;-91
2021/11/27 09:26:51;;;;;;;18.73;8.70;;;;;;;;;;5017152;28;20058;-91
2021/11/27 09:29:18;;;;;;;16.40;7.80;;;;;;;;;;5017951;28;20034;-93
2021/11/27 09:31:45;;;;;;;16.25;8.15;;;;;;;;;;5018264;28;20022;-90
2021/11/27 09:34:12;;;;;;;18.08;7.95;;;;;;;;;;5017511;28;20030;-91
2021/11/27 09:36:39;;;;;;;18.50;8.75;;;;;;;;;;5017856;28;20038;-92
2021/11/27 09:39:07;;;;;;;20.80;8.98;;;;;;;;;;5018798;28;20021;-93
2021/11/27 09:41:34;;;;;;;23.73;10.07;;;;;;;;;;5018164;28;20112;-92
2021/11/27 09:44:05;;;;;;;19.25;8.52;;;;;;;;;;5018384;28;20018;-86
2021/11/27 09:46:35;;;;;;;19.25;8.45;;;;;;;;;;5017202;28;20092;-84
2021/11/27 09:49:03;;;;;;;20.63;8.57;;;;;;;;;;5016413;28;20080;-86
2021/11/27 09:51:31;;;;;;;16.48;7.72;;;;;;;;;;5016482;28;20022;-92
2021/11/27 09:53:59;;;;;;;16.27;7.85;;;;;;;;;;5016713;28;20030;-85
2021/11/27 09:56:26;;;;;;;15.18;6.55;;;;;;;;;;5016559;28;20053;-86
2021/11/27 09:58:52;;;;;;;17.45;7.57;;;;;;;;;;5017801;28;20038;-88
2021/11/27 10:01:20;;;;;;;17.38;7.22;;;;;;;;;;5016693;28;20026;-85
2021/11/27 10:04:00;;;;;;;13.85;7.10;;;;;;;;;;5016961;28;20037;-89
2021/11/27 10:06:28;;;;;;;15.07;7.20;;;;;;;;;;5017377;28;20492;-92
2021/11/27 10:08:54;;;;;;;16.83;7.55;;;;;;;;;;5035827;28;20114;-85
2021/11/27 10:11:20;;;;;;;13.45;6.78;;;;;;;;;;5033434;28;20061;-89
2021/11/27 10:13:47;;;;;;;15.23;7.30;;;;;;;;;;5026817;28;20022;-88
2021/11/27 10:16:13;;;;;;;13.77;6.10;;;;;;;;;;5018007;28;20134;-84
2021/11/27 10:18:39;;;;;;;13.50;6.28;;;;;;;;;;5016078;28;20026;-86
2021/11/27 10:21:19;;;;;;;13.20;6.05;;;;;;;;;;5016085;28;20137;-87
2021/11/27 10:23:46;;;;;;;14.18;6.25;;;;;;;;;;5015998;28;20061;-90
2021/11/27 10:26:31;;;;;;;17.17;7.13;;;;;;;;;;5015788;28;20487;-88
2021/11/27 10:29:17;;;;;;;21.20;6.72;;;;;;;;;;5015810;28;20034;-91
2021/11/27 10:31:44;;;;;;;12.43;6.18;;;;;;;;;;5015831;28;20120;-87
2021/11/27 10:34:24;;;;;;;14.93;6.10;;;;;;;;;;5015887;28;20022;-91
2021/11/27 10:36:51;;;;;;;17.48;6.78;;;;;;;;;;5016141;28;20034;-91
2021/11/27 10:39:18;;;;;;;16.38;7.40;;;;;;;;;;5017615;28;20088;-92
2021/11/27 10:42:05;;;;;;;26.75;11.05;;;;;;;;;;5017231;28;20032;-93
2021/11/27 10:44:33;;;;;;;22.77;10.25;;;;;;;;;;5015908;28;20057;-92
2021/11/27 10:47:28;;;;;;;17.95;7.18;;;;;;;;;;5015765;28;20026;-90
2021/11/27 10:50:03;;;;;;;15.43;7.70;;;;;;;;;;5000491;28;20049;-90
2021/11/27 10:52:33;;;;;;;16.55;7.70;;;;;;;;;;5015710;28;20438;-86
2021/11/27 10:54:59;;;;;;;17.40;7.72;;;;;;;;;;5015649;28;20103;-92
2021/11/27 10:57:29;;;;;;;16.35;7.00;;;;;;;;;;5015583;28;20093;-88
2021/11/27 10:59:56;;;;;;;15.70;8.20;;;;;;;;;;5015688;28;20056;-91
2021/11/27 11:02:24;;;;;;;14.50;6.82;;;;;;;;;;5017008;28;20052;-87
2021/11/27 11:05:20;;;;;;;17.70;7.35;;;;;;;;;;5015499;28;20022;-92
2021/11/27 11:08:05;;;;;;;18.20;7.38;;;;;;;;;;5000419;28;20057;-87
2021/11/27 11:10:32;;;;;;;18.55;7.72;;;;;;;;;;5015557;28;20022;-90
2021/11/27 11:12:58;;;;;;;17.05;7.75;;;;;;;;;;5015183;28;20021;-86
2021/11/27 11:15:27;;;;;;;18.10;7.85;;;;;;;;;;5015051;28;20046;-92
2021/11/27 11:18:13;;;;;;;17.27;8.25;;;;;;;;;;5014665;28;20410;-92
2021/11/27 11:20:47;;;;;;;19.95;8.35;;;;;;;;;;4999181;28;20117;-91
2021/11/27 11:23:15;;;;;;;16.20;7.32;;;;;;;;;;5014767;28;20022;-87
2021/11/27 11:25:54;;;;;;;17.00;7.25;;;;;;;;;;5013888;28;20053;-89
2021/11/27 11:28:21;;;;;;;17.30;7.75;;;;;;;;;;5015188;28;20037;-85
2021/11/27 11:30:48;;;;;;;13.32;6.75;;;;;;;;;;5014339;28;20030;-84
2021/11/27 11:33:16;;;;;;;18.88;7.30;;;;;;;;;;5014725;28;20026;-91
2021/11/27 11:35:43;;;;;;;18.55;7.63;;;;;;;;;;5015284;28;20022;-91
2021/11/27 11:38:11;;;;;;;16.50;7.03;;;;;;;;;;5015811;28;20029;-86
2021/11/27 11:40:38;;;;;;;16.45;6.68;;;;;;;;;;5014603;28;20052;-88
2021/11/27 11:43:04;;;;;;;17.10;7.25;;;;;;;;;;5014575;28;20117;-89
2021/11/27 11:45:31;;;;;;;21.08;8.23;;;;;;;;;;5014616;28;20049;-91
2021/11/27 11:47:58;;;;;;;15.70;7.00;;;;;;;;;;5014565;28;20105;-90
2021/11/27 11:50:25;;;;;;;15.90;7.18;;;;;;;;;;5014884;28;20372;-86
2021/11/27 11:52:59;;;;;;;13.73;5.72;;;;;;;;;;5014383;28;20084;-87
2021/11/27 11:55:25;;;;;;;14.82;6.38;;;;;;;;;;4998149;28;20414;-85
2021/11/27 11:57:56;;;;;;;14.75;6.85;;;;;;;;;;5013660;28;20426;-84
2021/11/27 12:00:23;;;;;;;15.57;6.75;;;;;;;;;;5013901;28;20021;-85
2021/11/27 12:02:53;;;;;;;15.65;7.47;;;;;;;;;;5015802;28;20454;-84
2021/11/27 12:05:22;;;;;;;13.45;5.80;;;;;;;;;;5013523;28;20065;-84
2021/11/27 12:07:51;;;;;;;15.63;6.90;;;;;;;;;;5016249;28;20084;-88
2021/11/27 12:10:20;;;;;;;12.73;6.20;;;;;;;;;;5014994;28;20394;-87
2021/11/27 12:13:07;;;;;;;13.52;7.22;;;;;;;;;;5014072;28;20088;-87
2021/11/27 12:15:39;;;;;;;17.98;7.18;;;;;;;;;;5014444;28;20386;-91
2021/11/27 12:18:10;;;;;;;15.40;7.07;;;;;;;;;;5014840;28;20056;-93
2021/11/27 12:20:42;;;;;;;13.98;6.97;;;;;;;;;;5017449;28;20481;-90
2021/11/27 12:23:32;;;;;;;21.55;8.57;;;;;;;;;;5020794;28;20017;-88
2021/11/27 12:26:10;;;;;;;17.85;8.27;;;;;;;;;;5037661;28;20041;-88
2021/11/27 12:28:37;;;;;;;15.75;7.82;;;;;;;;;;5028065;28;20048;-85
2021/11/27 12:31:17;;;;;;;14.80;6.80;;;;;;;;;;5018308;28;20033;-88
2021/11/27 12:33:45;;;;;;;15.50;7.70;;;;;;;;;;5013145;28;20485;-91
2021/11/27 12:36:33;;;;;;;16.48;7.80;;;;;;;;;;5014069;28;20029;-90
2021/11/27 12:39:17;;;;;;;16.48;7.55;;;;;;;;;;5013957;28;20022;-92
2021/11/27 12:41:45;;;;;;;15.18;7.35;;;;;;;;;;5014040;28;20072;-85
2021/11/27 12:44:17;;;;;;;16.55;7.72;;;;;;;;;;5014228;28;20030;-85
2021/11/27 12:46:45;;;;;;;16.05;7.18;;;;;;;;;;5012806;28;20113;-88
2021/11/27 12:49:34;;;;;;;18.60;8.93;;;;;;;;;;5014584;28;20061;-87
2021/11/27 12:52:20;;;;;;;17.30;7.80;;;;;;;;;;4988437;28;20036;-88
2021/11/27 12:54:53;;;;;;;14.93;7.10;;;;;;;;;;5013865;28;20033;-89
2021/11/27 12:57:24;;;;;;;19.50;7.57;;;;;;;;;;5015090;28;20029;-87
2021/11/27 13:00:06;;;;;;;16.02;7.57;;;;;;;;;;5014744;28;20084;-92
2021/11/27 13:02:32;;;;;;;17.95;7.78;;;;;;;;;;5016182;28;20026;-95
2021/11/27 13:04:59;;;;;;;18.30;8.70;;;;;;;;;;5017234;28;20478;-95
2021/11/27 13:07:26;;;;;;;17.85;8.60;;;;;;;;;;5015818;28;20060;-93
2021/11/27 13:10:02;;;;;;;18.23;8.85;;;;;;;;;;5018822;28;20069;-94
2021/11/27 13:12:29;;;;;;;17.38;7.75;;;;;;;;;;5018399;28;20022;-93
2021/11/27 13:15:11;;;;;;;16.50;7.68;;;;;;;;;;5016296;28;20040;-90
2021/11/27 13:17:37;;;;;;;16.50;8.27;;;;;;;;;;5017897;28;20026;-91
2021/11/27 13:20:04;;;;;;;18.33;9.05;;;;;;;;;;5017597;28;20026;-94
2021/11/27 13:22:31;;;;;;;17.17;8.45;;;;;;;;;;5017533;28;20068;-94
2021/11/27 13:25:00;;;;;;;23.13;10.43;;;;;;;;;;5010776;28;20054;-88
2021/11/27 13:27:27;;;;;;;20.73;9.20;;;;;;;;;;4994766;28;20045;-90
2021/11/27 13:29:59;;;;;;;23.85;9.73;;;;;;;;;;4994658;28;20032;-87
2021/11/27 13:32:58;;;;;;;20.75;8.98;;;;;;;;;;4994820;28;20098;-89
2021/11/27 13:35:24;;;;;;;24.70;9.77;;;;;;;;;;4935444;28;20495;-85
2021/11/27 13:37:55;;;;;;;21.25;9.15;;;;;;;;;;4995078;28;20019;-91
2021/11/27 13:40:23;;;;;;;25.52;11.02;;;;;;;;;;4995218;28;20037;-95
2021/11/27 13:42:50;;;;;;;24.67;10.45;;;;;;;;;;4994180;28;20030;-94
2021/11/27 13:45:17;;;;;;;26.67;10.38;;;;;;;;;;4996570;28;20030;-93
2021/11/27 13:47:43;;;;;;;26.42;11.20;;;;;;;;;;4997545;28;20038;-93
2021/11/27 13:50:13;;;;;;;25.35;10.80;;;;;;;;;;4997715;28;20035;-95
2021/11/27 13:52:45;;;;;;;31.50;13.93;;;;;;;;;;4997932;28;20036;-95
2021/11/27 13:55:15;;;;;;;36.85;14.52;;;;;;;;;;4999503;28;20491;-87
2021/11/27 13:57:43;;;;;;;37.30;13.93;;;;;;;;;;4997513;28;20041;-88
2021/11/27 14:00:16;;;;;;;41.50;14.90;;;;;;;;;;4997755;28;20438;-94
2021/11/27 14:02:43;;;;;;;34.20;14.25;;;;;;;;;;4998145;28;20058;-92
2021/11/27 14:05:09;;;;;;;40.58;17.27;;;;;;;;;;4997032;28;20598;-86
2021/11/27 14:07:39;;;;;;;39.83;17.15;;;;;;;;;;4996877;28;20034;-86
2021/11/27 14:10:13;;;;;;;38.28;15.32;;;;;;;;;;4996962;28;20037;-91
2021/11/27 14:12:41;;;;;;;36.65;15.25;;;;;;;;;;4997748;28;20014;-92
2021/11/27 14:15:12;;;;;;;32.55;13.50;;;;;;;;;;4996317;28;20045;-88
2021/11/27 14:17:39;;;;;;;32.38;14.55;;;;;;;;;;4997478;28;20052;-89
2021/11/27 14:20:13;;;;;;;29.42;12.40;;;;;;;;;;4997293;28;20026;-94
2021/11/27 14:23:00;;;;;;;33.83;13.18;;;;;;;;;;4997396;28;20491;-92
2021/11/27 14:25:28;;;;;;;32.97;14.57;;;;;;;;;;5006272;28;20117;-91
2021/11/27 14:27:57;;;;;;;43.45;14.82;;;;;;;;;;5016785;28;20034;-85
2021/11/27 14:30:24;;;;;;;31.25;13.50;;;;;;;;;;5016397;28;20030;-87
2021/11/27 14:32:51;;;;;;;33.45;11.45;;;;;;;;;;5016807;28;20026;-87
2021/11/27 14:35:27;;;;;;;27.73;12.38;;;;;;;;;;5016278;28;20470;-87